Map

Track Data

SID SEASON NUMBER BASIN SUBBASIN NAME ISO_TIME NATURE LAT LON WMO_WIND WMO_PRES WMO_AGENCY TRACK_TYPE DIST2LAND LANDFALL IFLAG USA_AGENCY USA_ATCF_ID USA_LAT USA_LON USA_RECORD USA_STATUS USA_WIND USA_PRES USA_SSHS USA_R34_NE USA_R34_SE USA_R34_SW USA_R34_NW USA_R50_NE USA_R50_SE USA_R50_SW USA_R50_NW USA_R64_NE USA_R64_SE USA_R64_SW USA_R64_NW USA_POCI USA_ROCI USA_RMW USA_EYE TOKYO_LAT TOKYO_LON TOKYO_GRADE TOKYO_WIND TOKYO_PRES TOKYO_R50_DIR TOKYO_R50_LONG TOKYO_R50_SHORT TOKYO_R30_DIR TOKYO_R30_LONG TOKYO_R30_SHORT TOKYO_LAND CMA_LAT CMA_LON CMA_CAT CMA_WIND CMA_PRES HKO_LAT HKO_LON HKO_CAT HKO_WIND HKO_PRES NEWDELHI_LAT NEWDELHI_LON NEWDELHI_GRADE NEWDELHI_WIND NEWDELHI_PRES NEWDELHI_CI NEWDELHI_DP NEWDELHI_POCI REUNION_LAT REUNION_LON REUNION_TYPE REUNION_WIND REUNION_PRES REUNION_TNUM REUNION_CI REUNION_RMW REUNION_R34_NE REUNION_R34_SE REUNION_R34_SW REUNION_R34_NW REUNION_R50_NE REUNION_R50_SE REUNION_R50_SW REUNION_R50_NW REUNION_R64_NE REUNION_R64_SE REUNION_R64_SW REUNION_R64_NW BOM_LAT BOM_LON BOM_TYPE BOM_WIND BOM_PRES BOM_TNUM BOM_CI BOM_RMW BOM_R34_NE BOM_R34_SE BOM_R34_SW BOM_R34_NW BOM_R50_NE BOM_R50_SE BOM_R50_SW BOM_R50_NW BOM_R64_NE BOM_R64_SE BOM_R64_SW BOM_R64_NW BOM_ROCI BOM_POCI BOM_EYE BOM_POS_METHOD BOM_PRES_METHOD NADI_LAT NADI_LON NADI_CAT NADI_WIND NADI_PRES WELLINGTON_LAT WELLINGTON_LON WELLINGTON_WIND WELLINGTON_PRES DS824_LAT DS824_LON DS824_STAGE DS824_WIND DS824_PRES TD9636_LAT TD9636_LON TD9636_STAGE TD9636_WIND TD9636_PRES TD9635_LAT TD9635_LON TD9635_WIND TD9635_PRES TD9635_ROCI NEUMANN_LAT NEUMANN_LON NEUMANN_CLASS NEUMANN_WIND NEUMANN_PRES MLC_LAT MLC_LON MLC_CLASS MLC_WIND MLC_PRES USA_GUST BOM_GUST BOM_GUST_PER REUNION_GUST REUNION_GUST_PER USA_SEAHGT USA_SEARAD_NE USA_SEARAD_SE USA_SEARAD_SW USA_SEARAD_NW STORM_SPEED STORM_DIR
1940203N14157 1940 37 WP MM NOT_NAMED 1940-07-20 21:00:00 NR 14.0000 156.500 main 1970 1966 __________O___ -1 14.0000 156.500 4 1 264
1940203N14157 1940 37 WP MM NOT_NAMED 1940-07-21 00:00:00 NR 13.9944 156.439 main 1966 1963 __________P___ -1 13.9944 156.439 4 2 267
1940203N14157 1940 37 WP MM NOT_NAMED 1940-07-21 03:00:00 NR 13.9911 156.322 main 1963 1956 __________P___ -1 13.9911 156.322 4 3 270
1940203N14157 1940 37 WP MM NOT_NAMED 1940-07-21 06:00:00 NR 13.9923 156.094 main 1956 1944 __________P___ -1 13.9923 156.094 4 6 271
1940203N14157 1940 37 WP MM NOT_NAMED 1940-07-21 09:00:00 NR 14.0000 155.700 main 1944 1927 __________O___ -1 14.0000 155.700 4 10 271
1940203N14157 1940 37 WP MM NOT_NAMED 1940-07-21 12:00:00 NR 14.0135 155.106 main 1927 1910 __________P___ -1 14.0135 155.106 4 13 271
1940203N14157 1940 37 WP MM NOT_NAMED 1940-07-21 15:00:00 NR 14.0244 154.370 main 1910 1894 __________P___ -1 14.0244 154.370 4 15 270
1940203N14157 1940 37 WP MM NOT_NAMED 1940-07-21 18:00:00 NR 14.0228 153.575 main 1894 1882 __________P___ -1 14.0228 153.575 4 15 269
1940203N14157 1940 37 WP MM NOT_NAMED 1940-07-21 21:00:00 NR 14.0000 152.800 main 1882 1865 __________O___ -1 14.0000 152.800 4 14 262
1940203N14157 1940 37 WP MM NOT_NAMED 1940-07-22 00:00:00 NR 13.8438 152.182 main 1854 1829 __________P___ -1 13.8438 152.182 4 12 255
1940203N14157 1940 37 WP MM NOT_NAMED 1940-07-22 03:00:00 NR 13.6833 151.596 main 1829 1803 __________P___ -1 13.6833 151.596 4 12 258
1940203N14157 1940 37 WP MM NOT_NAMED 1940-07-22 06:00:00 NR 13.6063 151.013 main 1803 1791 __________P___ -1 13.6063 151.013 4 12 271
1940203N14157 1940 37 WP MM NOT_NAMED 1940-07-22 09:00:00 NR 13.7000 150.400 main 1800 1798 __________O___ -1 13.7000 150.400 4 13 294
1940203N14157 1940 37 WP MM NOT_NAMED 1940-07-22 12:00:00 NR 14.1546 149.751 main 1845 1842 __________P___ -1 14.1546 149.751 4 17 309
1940203N14157 1940 37 WP MM NOT_NAMED 1940-07-22 15:00:00 NR 14.7684 149.060 main 1902 1901 __________P___ -1 14.7684 149.060 4 19 312
1940203N14157 1940 37 WP MM NOT_NAMED 1940-07-22 18:00:00 NR 15.3980 148.313 main 1962 1962 __________P___ -1 15.3980 148.313 4 19 307
1940203N14157 1940 37 WP MM NOT_NAMED 1940-07-22 21:00:00 NR 15.9000 147.500 main 2016 2016 __________O___ -1 15.9000 147.500 4 17 293
1940203N14157 1940 37 WP MM NOT_NAMED 1940-07-23 00:00:00 NR 16.0777 146.676 main 2038 2038 __________P___ -1 16.0777 146.676 4 17 277
1940203N14157 1940 37 WP MM NOT_NAMED 1940-07-23 03:00:00 NR 16.1112 145.783 main 2040 2040 __________P___ -1 16.1112 145.783 4 18 270
1940203N14157 1940 37 WP MM NOT_NAMED 1940-07-23 06:00:00 NR 16.0642 144.799 main 2048 2018 __________P___ -1 16.0642 144.799 4 20 267
1940203N14157 1940 37 WP MM NOT_NAMED 1940-07-23 09:00:00 NR 16.0000 143.700 main 2008 1871 __________O___ -1 16.0000 143.700 4 23 269
1940203N14157 1940 37 WP MM NOT_NAMED 1940-07-23 12:00:00 NR 16.0074 142.372 main 1871 1725 __________P___ -1 16.0074 142.372 4 26 270
1940203N14157 1940 37 WP MM NOT_NAMED 1940-07-23 15:00:00 NR 16.0062 140.947 main 1714 1579 __________P___ -1 16.0062 140.947 4 27 270
1940203N14157 1940 37 WP MM NOT_NAMED 1940-07-23 18:00:00 NR 16.0012 139.549 main 1568 1455 __________P___ -1 16.0012 139.549 4 25 270
1940203N14157 1940 37 WP MM NOT_NAMED 1940-07-23 21:00:00 NR 16.0000 138.300 main 1444 1352 __________O___ -1 16.0000 138.300 4 21 271
1940203N14157 1940 37 WP MM NOT_NAMED 1940-07-24 00:00:00 NR 16.0209 137.373 main 1352 1270 __________P___ -1 16.0209 137.373 4 16 272
1940203N14157 1940 37 WP MM NOT_NAMED 1940-07-24 03:00:00 NR 16.0512 136.601 main 1274 1203 __________P___ -1 16.0512 136.601 4 14 272
1940203N14157 1940 37 WP MM NOT_NAMED 1940-07-24 06:00:00 NR 16.0812 135.904 main 1203 1133 __________P___ -1 16.0812 135.904 4 13 272
1940203N14157 1940 37 WP MM NOT_NAMED 1940-07-24 09:00:00 NR 16.1000 135.200 main 1133 1054 __________O___ -1 16.1000 135.200 4 15 270
1940203N14157 1940 37 WP MM NOT_NAMED 1940-07-24 12:00:00 NR 16.0774 134.339 main 1044 962 __________P___ -1 16.0774 134.339 4 17 268
1940203N14157 1940 37 WP MM NOT_NAMED 1940-07-24 15:00:00 NR 16.0430 133.462 main 962 885 __________P___ -1 16.0430 133.462 4 17 268
1940203N14157 1940 37 WP MM NOT_NAMED 1940-07-24 18:00:00 NR 16.0119 132.604 main 876 801 __________P___ -1 16.0119 132.604 4 16 268
1940203N14157 1940 37 WP MM NOT_NAMED 1940-07-24 21:00:00 NR 16.0000 131.800 main 801 747 __________O___ -1 16.0000 131.800 4 14 268
1940203N14157 1940 37 WP MM NOT_NAMED 1940-07-25 00:00:00 NR 15.9654 131.116 main 738 686 __________P___ -1 15.9654 131.116 4 13 268
1940203N14157 1940 37 WP MM NOT_NAMED 1940-07-25 03:00:00 NR 15.9622 130.483 main 686 636 __________P___ -1 15.9622 130.483 4 12 273
1940203N14157 1940 37 WP MM NOT_NAMED 1940-07-25 06:00:00 NR 16.0280 129.859 main 636 576 __________P___ -1 16.0280 129.859 4 13 281
1940203N14157 1940 37 WP MM NOT_NAMED 1940-07-25 09:00:00 NR 16.2000 129.200 main 576 518 __________O___ -1 16.2000 129.200 4 15 290
1940203N14157 1940 37 WP MM NOT_NAMED 1940-07-25 12:00:00 NR 16.5427 128.393 main 518 480 __________P___ -1 16.5427 128.393 4 18 296
1940203N14157 1940 37 WP MM NOT_NAMED 1940-07-25 15:00:00 NR 16.9842 127.551 main 487 459 __________P___ -1 16.9842 127.551 4 18 300
1940203N14157 1940 37 WP MM NOT_NAMED 1940-07-25 18:00:00 NR 17.4585 126.733 main 449 384 __________P___ -1 17.4585 126.733 4 17 302
1940203N14157 1940 37 WP MM NOT_NAMED 1940-07-25 21:00:00 NR 17.9000 126.000 main 384 338 __________O___ -1 17.9000 126.000 4 14 302
1940203N14157 1940 37 WP MM NOT_NAMED 1940-07-26 00:00:00 NR 18.2199 125.450 main 327 285 __________P___ -1 18.2199 125.450 4 11 302
1940203N14157 1940 37 WP MM NOT_NAMED 1940-07-26 03:00:00 NR 18.4996 124.987 main 285 244 __________P___ -1 18.4996 124.987 4 10 302
1940203N14157 1940 37 WP MM NOT_NAMED 1940-07-26 06:00:00 NR 18.7545 124.556 main 246 201 __________P___ -1 18.7545 124.556 4 10 301
1940203N14157 1940 37 WP MM NOT_NAMED 1940-07-26 09:00:00 NR 19.0000 124.100 main 201 163 __________O___ -1 19.0000 124.100 4 11 298
1940203N14157 1940 37 WP MM NOT_NAMED 1940-07-26 12:00:00 NR 19.2571 123.536 main 161 139 __________P___ -1 19.2571 123.536 4 12 295
1940203N14157 1940 37 WP MM NOT_NAMED 1940-07-26 15:00:00 NR 19.5074 122.937 main 138 133 __________P___ -1 19.5074 122.937 4 13 293
1940203N14157 1940 37 WP MM NOT_NAMED 1940-07-26 18:00:00 NR 19.7539 122.320 main 156 156 __________P___ -1 19.7539 122.320 4 13 293
1940203N14157 1940 37 WP MM NOT_NAMED 1940-07-26 21:00:00 NR 20.0000 121.700 main 170 169 __________O___ -1 20.0000 121.700 4 13 293
1940203N14157 1940 37 WP MM NOT_NAMED 1940-07-27 00:00:00 NR 20.2579 121.084 main 180 156 __________P___ -1 20.2579 121.084 4 13 294
1940203N14157 1940 37 WP MM NOT_NAMED 1940-07-27 03:00:00 NR 20.5147 120.470 main 157 147 __________P___ -1 20.5147 120.470 4 12 294
1940203N14157 1940 37 WP MM NOT_NAMED 1940-07-27 06:00:00 NR 20.7642 119.871 main 148 148 __________P___ -1 20.7642 119.871 4 12 294
1940203N14157 1940 37 WP MM NOT_NAMED 1940-07-27 09:00:00 NR 21.0000 119.300 main 176 176 __________O___ -1 21.0000 119.300 4 11 294
1940203N14157 1940 37 WP MM NOT_NAMED 1940-07-27 12:00:00 NR 21.2176 118.767 main 211 211 __________P___ -1 21.2176 118.767 4 11 294
1940203N14157 1940 37 WP MM NOT_NAMED 1940-07-27 15:00:00 NR 21.4214 118.262 main 240 197 __________P___ -1 21.4214 118.262 4 10 293
1940203N14157 1940 37 WP MM NOT_NAMED 1940-07-27 18:00:00 NR 21.6146 117.776 main 197 147 __________P___ -1 21.6146 117.776 4 10 293
1940203N14157 1940 37 WP MM NOT_NAMED 1940-07-27 21:00:00 NR 21.8000 117.300 main 147 108 __________O___ -1 21.8000 117.300 4 10 293
1940203N14157 1940 37 WP MM NOT_NAMED 1940-07-28 00:00:00 NR 21.9802 116.826 main 105 84 __________P___ -1 21.9802 116.826 4 10 292
1940203N14157 1940 37 WP MM NOT_NAMED 1940-07-28 03:00:00 NR 22.1563 116.351 main 73 45 __________P___ -1 22.1563 116.351 4 9 292
1940203N14157 1940 37 WP MM NOT_NAMED 1940-07-28 06:00:00 NR 22.3293 115.876 main 45 22 __________P___ -1 22.3293 115.876 4 9 291
1940203N14157 1940 37 WP MM NOT_NAMED 1940-07-28 09:00:00 NR 22.5000 115.400 main 22 __________O___ -1 22.5000 115.400 4 9 291

Digital Typhoon Data and Search

About IBTrACS Database

This database is a web-friendly format of International Best Track Archive for Climate Stewardship (IBTrACS), a global best track data archive curated by NOAA dating back to 1842.

Updated: 2021-12-03